Time;durP1;ratioP1;P1;durP2;ratioP2;P2;SDS_P1;SDS_P2;PMS_P1;PMS_P2;Temp;Humidity;BMP_temperature;BMP_pressure;BME280_temperature;BME280_humidity;BME280_pressure;Samples;Min_cycle;Max_cycle;Signal;HPM_P1;HPM_P2
2023/12/07 00:01:38;;;;;;;62.55;27.15;;;;;;;6.20;100.00;100181.31;4951679;29;20404;-70
2023/12/07 00:04:03;;;;;;;55.35;25.98;;;;;;;5.90;100.00;100122.56;4951964;29;20443;-70
2023/12/07 00:06:29;;;;;;;57.40;27.33;;;;;;;5.80;100.00;100116.09;4951719;29;20086;-70
2023/12/07 00:08:55;;;;;;;53.92;25.42;;;;;;;6.14;100.00;100178.44;4951947;29;20114;-70
2023/12/07 00:11:23;;;;;;;61.45;26.92;;;;;;;6.01;100.00;100165.81;4953693;28;20114;-70
2023/12/07 00:13:48;;;;;;;49.53;25.00;;;;;;;6.15;100.00;100182.78;4955673;29;20042;-69
2023/12/07 00:16:14;;;;;;;56.80;25.15;;;;;;;6.13;100.00;100179.25;4955199;29;20026;-70
2023/12/07 00:18:39;;;;;;;57.53;25.75;;;;;;;6.19;100.00;100189.81;4955813;29;20412;-70
2023/12/07 00:21:07;;;;;;;57.00;25.42;;;;;;;6.12;100.00;100195.44;4955219;29;20031;-70
2023/12/07 00:23:33;;;;;;;59.53;27.33;;;;;;;5.78;100.00;100153.59;4955401;29;20035;-70
2023/12/07 00:25:58;;;;;;;58.33;26.88;;;;;;;5.96;100.00;100194.63;4955588;29;20074;-70
2023/12/07 00:28:23;;;;;;;57.42;26.40;;;;;;;5.76;100.00;100170.56;4954968;29;20030;-70
2023/12/07 00:30:49;;;;;;;67.63;28.33;;;;;;;5.90;100.00;100198.56;4955197;29;20101;-70
2023/12/07 00:33:14;;;;;;;69.97;31.40;;;;;;;5.91;100.00;100190.09;4955302;29;20618;-70
2023/12/07 00:35:40;;;;;;;65.03;29.48;;;;;;;5.84;100.00;100178.63;4955044;29;20032;-70
2023/12/07 00:38:08;;;;;;;67.35;28.77;;;;;;;5.96;100.00;100183.50;4954936;29;20035;-70
2023/12/07 00:40:36;;;;;;;64.72;27.50;;;;;;;5.98;100.00;100189.56;4954532;29;20062;-70
2023/12/07 00:43:03;;;;;;;64.40;28.42;;;;;;;5.96;100.00;100198.88;4954783;29;20040;-70
2023/12/07 00:45:28;;;;;;;68.20;30.52;;;;;;;5.79;100.00;100175.81;4954466;29;20035;-70
2023/12/07 00:47:54;;;;;;;67.40;29.38;;;;;;;5.89;100.00;100187.41;4955002;29;20039;-70
2023/12/07 00:50:19;;;;;;;64.40;28.17;;;;;;;5.90;100.00;100199.44;4954859;29;20111;-70
2023/12/07 00:52:45;;;;;;;64.25;27.90;;;;;;;5.92;100.00;100195.28;4954757;29;20163;-70
2023/12/07 00:55:10;;;;;;;66.18;28.50;;;;;;;5.95;100.00;100192.84;4954978;29;20055;-72
2023/12/07 00:57:36;;;;;;;70.28;34.90;;;;;;;5.96;100.00;100189.50;4954210;29;20035;-72
2023/12/07 01:00:02;;;;;;;65.47;31.45;;;;;;;5.87;100.00;100190.69;4954942;29;20047;-72
2023/12/07 01:02:27;;;;;;;61.40;29.08;;;;;;;5.39;100.00;100116.56;4937197;29;20110;-72
2023/12/07 01:04:53;;;;;;;58.78;26.13;;;;;;;5.64;100.00;100170.78;4954174;29;20027;-72
2023/12/07 01:07:18;;;;;;;65.53;28.65;;;;;;;5.38;100.00;100145.50;4954552;29;20474;-71
2023/12/07 01:09:44;;;;;;;60.15;26.48;;;;;;;5.75;100.00;100196.09;4954449;29;20031;-71
2023/12/07 01:12:09;;;;;;;64.57;28.45;;;;;;;5.66;100.00;100176.88;4954559;29;20055;-71
2023/12/07 01:14:35;;;;;;;64.72;27.83;;;;;;;5.73;100.00;100184.88;4954189;29;20027;-71
2023/12/07 01:17:00;;;;;;;61.53;26.52;;;;;;;5.72;100.00;100194.25;4954141;29;20043;-71
2023/12/07 01:19:26;;;;;;;61.33;26.58;;;;;;;5.65;100.00;100181.91;4953995;29;20094;-71
2023/12/07 01:21:51;;;;;;;53.33;24.13;;;;;;;5.73;100.00;100196.03;4953199;28;20027;-71
2023/12/07 01:24:17;;;;;;;63.17;26.00;;;;;;;5.66;100.00;100187.13;4953989;29;20043;-71
2023/12/07 01:26:43;;;;;;;59.85;26.08;;;;;;;5.64;100.00;100185.28;4954476;29;20031;-71
2023/12/07 01:29:08;;;;;;;61.05;26.40;;;;;;;5.25;100.00;100110.72;4954212;29;20058;-71
2023/12/07 01:31:33;;;;;;;65.57;28.20;;;;;;;5.76;100.00;100201.28;4952913;29;20039;-71
2023/12/07 01:33:59;;;;;;;56.30;25.55;;;;;;;5.22;100.00;100100.31;4953812;29;20111;-71
2023/12/07 01:36:25;;;;;;;53.08;26.05;;;;;;;5.65;100.00;100169.13;4954003;29;20035;-70
2023/12/07 01:38:50;;;;;;;62.22;28.83;;;;;;;5.72;100.00;100185.66;4953504;29;20035;-70
2023/12/07 01:41:16;;;;;;;63.90;27.63;;;;;;;5.33;100.00;100118.00;4953878;29;20114;-70
2023/12/07 01:43:46;;;;;;;58.00;25.50;;;;;;;5.60;100.00;100168.00;4953950;29;20049;-71
2023/12/07 01:46:12;;;;;;;69.18;29.77;;;;;;;5.25;100.00;100114.16;4954054;29;20102;-71
2023/12/07 01:48:37;;;;;;;63.75;27.05;;;;;;;5.70;100.00;100190.72;4954141;29;20498;-71
2023/12/07 01:51:03;;;;;;;66.35;27.65;;;;;;;5.56;100.00;100177.22;4953692;29;20027;-71
2023/12/07 01:53:29;;;;;;;65.38;27.95;;;;;;;5.70;100.00;100190.72;4953736;29;20031;-70
2023/12/07 01:55:55;;;;;;;63.45;26.75;;;;;;;5.65;100.00;100164.00;4953450;29;20028;-71
2023/12/07 01:58:21;;;;;;;55.80;24.38;;;;;;;5.78;100.00;100189.44;4953893;29;20533;-71
2023/12/07 02:00:47;;;;;;;59.60;25.02;;;;;;;5.66;100.00;100170.88;4953395;29;20387;-70
2023/12/07 02:03:14;;;;;;;55.42;26.15;;;;;;;5.59;100.00;100145.75;4919272;29;20073;-71
2023/12/07 02:05:45;;;;;;;52.80;25.05;;;;;;;5.67;100.00;100160.72;4953443;29;20114;-71
2023/12/07 02:08:11;;;;;;;60.50;25.30;;;;;;;5.24;100.00;100093.59;4953444;29;20031;-71
2023/12/07 02:10:37;;;;;;;51.10;25.58;;;;;;;5.75;100.00;100175.59;4953569;29;20098;-71
2023/12/07 02:13:03;;;;;;;53.25;23.85;;;;;;;5.63;100.00;100178.38;4953586;29;20066;-71
2023/12/07 02:15:29;;;;;;;56.95;24.90;;;;;;;5.64;100.00;100186.16;4953245;29;20039;-70
2023/12/07 02:18:13;;;;;;;49.90;22.38;;;;;;;5.50;100.00;100166.63;4953221;29;20031;-71
2023/12/07 02:20:57;;;;;;;53.40;23.70;;;;;;;5.60;100.00;100189.34;4953569;29;20090;-71
2023/12/07 02:23:25;;;;;;;52.90;23.55;;;;;;;5.64;100.00;100180.16;4953291;29;20118;-71
2023/12/07 02:26:22;;;;;;;54.42;24.15;;;;;;;5.73;100.00;100183.22;4919632;29;20043;-71
2023/12/07 02:28:48;;;;;;;50.42;22.60;;;;;;;5.82;100.00;100182.81;4952995;29;20063;-71
2023/12/07 02:31:13;;;;;;;51.30;23.60;;;;;;;5.78;100.00;100170.63;4952744;29;20031;-71
2023/12/07 02:50:27;;;;;;;49.42;22.95;;;;;;;5.56;100.00;100187.44;4952488;29;20073;-70
2023/12/07 02:52:53;;;;;;;51.17;23.13;;;;;;;5.56;100.00;100184.00;4952690;29;20485;-71
2023/12/07 02:55:18;;;;;;;43.90;21.05;;;;;;;5.05;100.00;100104.53;4935484;29;20035;-70
2023/12/07 02:57:44;;;;;;;49.88;22.80;;;;;;;5.56;100.00;100194.22;4953049;29;20127;-70
2023/12/07 03:00:12;;;;;;;44.88;21.02;;;;;;;5.13;100.00;100139.09;4952352;29;20031;-70
2023/12/07 03:02:39;;;;;;;40.33;19.95;;;;;;;5.33;100.00;100188.78;4952197;29;20027;-70
2023/12/07 03:05:07;;;;;;;49.03;23.08;;;;;;;5.43;100.00;100201.28;4952486;29;20081;-71
2023/12/07 03:07:35;;;;;;;39.85;19.63;;;;;;;5.45;100.00;100194.56;4951997;29;20501;-70
2023/12/07 03:10:02;;;;;;;40.40;20.27;;;;;;;5.21;100.00;100168.53;4952597;29;20067;-70
2023/12/07 03:12:28;;;;;;;44.63;20.40;;;;;;;5.15;100.00;100174.19;4952440;29;20046;-70
2023/12/07 03:14:53;;;;;;;44.13;20.98;;;;;;;5.07;100.00;100179.69;4952016;29;20031;-70
2023/12/07 03:17:19;;;;;;;42.50;20.00;;;;;;;5.13;100.00;100203.06;4952349;29;20070;-69
2023/12/07 03:19:45;;;;;;;42.63;21.33;;;;;;;5.09;100.00;100190.91;4952175;29;20039;-70
2023/12/07 03:22:10;;;;;;;44.65;21.55;;;;;;;4.05;100.00;100019.94;4935118;29;20122;-70
2023/12/07 03:24:36;;;;;;;46.38;21.50;;;;;;;4.99;100.00;100195.50;4952338;29;20127;-70
2023/12/07 03:27:02;;;;;;;49.30;21.50;;;;;;;4.99;100.00;100192.94;4952103;29;20035;-70
2023/12/07 03:29:28;;;;;;;44.63;21.15;;;;;;;5.01;100.00;100191.38;4952095;29;20039;-70
2023/12/07 03:31:53;;;;;;;44.00;21.48;;;;;;;5.10;100.00;100200.34;4951940;29;20030;-70
2023/12/07 03:34:19;;;;;;;47.03;21.23;;;;;;;5.11;100.00;100199.53;4952229;29;20024;-70
2023/12/07 03:36:48;;;;;;;46.97;19.90;;;;;;;4.78;100.00;100161.09;4951978;29;20031;-70
2023/12/07 03:39:15;;;;;;;42.15;20.45;;;;;;;5.02;100.00;100199.91;4945818;29;20032;-70
2023/12/07 03:41:42;;;;;;;44.10;19.58;;;;;;;5.03;100.00;100183.78;4945725;29;20067;-71
2023/12/07 03:44:07;;;;;;;39.65;19.27;;;;;;;5.00;100.00;100197.28;4952158;29;20486;-70
2023/12/07 03:46:34;;;;;;;41.67;19.60;;;;;;;4.85;100.00;100189.63;4942793;28;20043;-71
2023/12/07 03:49:00;;;;;;;40.97;18.95;;;;;;;4.88;100.00;100188.94;4954182;29;20066;-69
2023/12/07 03:51:28;;;;;;;38.55;18.73;;;;;;;4.86;100.00;100195.66;4943839;29;20055;-69
2023/12/07 03:53:54;;;;;;;38.97;18.85;;;;;;;4.88;100.00;100191.47;4955017;29;20131;-69
2023/12/07 03:56:28;;;;;;;40.63;20.20;;;;;;;4.72;100.00;100161.63;4956086;29;20031;-69
2023/12/07 03:58:54;;;;;;;42.42;19.63;;;;;;;4.87;100.00;100182.03;4955466;29;20382;-72
2023/12/07 04:01:24;;;;;;;40.58;20.00;;;;;;;5.06;100.00;100193.28;4955906;29;20046;-69
2023/12/07 04:03:54;;;;;;;43.42;21.05;;;;;;;5.02;100.00;100169.22;4955385;29;20027;-70
2023/12/07 04:06:20;;;;;;;42.22;20.85;;;;;;;5.24;100.00;100199.41;4955807;29;20501;-70
2023/12/07 04:08:46;;;;;;;48.20;24.65;;;;;;;5.28;100.00;100179.97;4955685;29;20023;-70
2023/12/07 04:11:12;;;;;;;44.30;21.98;;;;;;;4.88;100.00;100114.75;4955331;29;20027;-70
2023/12/07 04:13:38;;;;;;;41.15;19.45;;;;;;;5.26;100.00;100166.22;4955349;29;20035;-69
2023/12/07 04:16:04;;;;;;;41.95;21.40;;;;;;;5.44;100.00;100194.47;4955710;29;20089;-70
2023/12/07 04:18:29;;;;;;;48.00;20.95;;;;;;;5.37;100.00;100185.59;4937385;29;20043;-70
2023/12/07 04:20:55;;;;;;;43.88;20.20;;;;;;;5.28;100.00;100174.84;4955670;29;20039;-70
2023/12/07 04:23:20;;;;;;;47.00;21.50;;;;;;;4.95;100.00;100115.97;4955925;29;20026;-69
2023/12/07 04:25:46;;;;;;;48.67;21.80;;;;;;;5.38;100.00;100206.94;4955188;29;20601;-69
2023/12/07 04:28:11;;;;;;;46.53;20.67;;;;;;;5.40;100.00;100224.16;4955532;29;20449;-69
2023/12/07 04:30:37;;;;;;;47.00;20.25;;;;;;;5.46;100.00;100215.94;4955108;29;20590;-69
2023/12/07 04:33:03;;;;;;;53.40;22.15;;;;;;;5.44;100.00;100218.38;4954977;29;20405;-69
2023/12/07 04:35:28;;;;;;;50.60;21.70;;;;;;;5.43;100.00;100197.84;4954981;29;20078;-69
2023/12/07 04:37:54;;;;;;;45.10;20.40;;;;;;;5.50;100.00;100207.59;4954755;29;20106;-71
2023/12/07 04:40:20;;;;;;;47.95;21.52;;;;;;;5.56;100.00;100207.94;4954825;29;20589;-70
2023/12/07 04:42:45;;;;;;;48.20;22.02;;;;;;;5.45;100.00;100199.69;4954819;29;20118;-69
2023/12/07 04:45:11;;;;;;;47.47;22.17;;;;;;;5.51;100.00;100209.38;4954875;29;20027;-69
2023/12/07 04:47:36;;;;;;;49.75;21.67;;;;;;;5.40;100.00;100215.59;4954608;29;20098;-69
2023/12/07 04:50:02;;;;;;;47.13;21.30;;;;;;;5.34;100.00;100214.44;4937567;29;20027;-70
2023/12/07 04:52:28;;;;;;;45.33;21.23;;;;;;;4.38;100.00;100048.16;4954832;29;20110;-70
2023/12/07 04:54:53;;;;;;;46.15;21.95;;;;;;;5.33;100.00;100214.38;4954471;29;20068;-70
2023/12/07 04:57:18;;;;;;;43.33;22.63;;;;;;;4.88;100.00;100131.78;4954358;28;20031;-72
2023/12/07 04:59:46;;;;;;;48.20;23.08;;;;;;;5.33;100.00;100224.63;4952816;29;20110;-69
2023/12/07 05:02:16;;;;;;;51.58;24.83;;;;;;;5.20;100.00;100197.50;4954732;29;20025;-70
2023/12/07 05:04:42;;;;;;;50.97;21.17;;;;;;;4.89;100.00;100141.22;4954912;29;20042;-69
2023/12/07 05:07:08;;;;;;;45.20;22.30;;;;;;;5.31;100.00;100211.75;4954569;29;20078;-69
2023/12/07 05:09:33;;;;;;;46.47;22.85;;;;;;;4.90;100.00;100156.66;4954095;29;20449;-69
2023/12/07 05:11:59;;;;;;;49.08;24.33;;;;;;;4.69;100.00;100118.84;4954291;29;20052;-70
2023/12/07 05:14:25;;;;;;;47.63;23.60;;;;;;;5.22;100.00;100211.25;4953171;29;20074;-70
2023/12/07 05:16:52;;;;;;;46.92;23.92;;;;;;;5.21;100.00;100217.16;4935541;29;20047;-70
2023/12/07 05:19:24;;;;;;;51.42;26.13;;;;;;;5.21;100.00;100208.59;4954549;29;20042;-71
2023/12/07 05:21:50;;;;;;;54.75;24.20;;;;;;;4.86;100.00;100134.25;4895085;29;20039;-71
2023/12/07 05:24:15;;;;;;;49.80;25.20;;;;;;;5.38;100.00;100217.19;4953894;29;20031;-70
2023/12/07 05:26:48;;;;;;;50.72;25.15;;;;;;;5.37;100.00;100217.97;4953750;29;20055;-70
2023/12/07 05:29:15;;;;;;;49.42;25.30;;;;;;;5.43;100.00;100226.00;4953545;29;20545;-70
2023/12/07 05:31:41;;;;;;;53.50;27.48;;;;;;;5.42;100.00;100217.44;4954080;29;20035;-70
2023/12/07 05:34:10;;;;;;;46.22;22.30;;;;;;;5.49;100.00;100221.19;4953713;29;20082;-70
2023/12/07 05:36:35;;;;;;;50.90;23.40;;;;;;;5.46;100.00;100215.94;4953588;29;20031;-70
2023/12/07 05:39:01;;;;;;;44.88;23.00;;;;;;;5.39;100.00;100216.41;4953846;29;20042;-70
2023/12/07 05:41:26;;;;;;;45.22;23.17;;;;;;;4.97;100.00;100158.75;4953985;29;20054;-69
2023/12/07 05:43:52;;;;;;;44.63;21.65;;;;;;;4.83;100.00;100134.09;4953841;29;20410;-69
2023/12/07 05:46:19;;;;;;;46.40;23.10;;;;;;;5.35;100.00;100220.47;4919690;29;20066;-70
2023/12/07 05:48:44;;;;;;;47.90;22.17;;;;;;;5.37;100.00;100228.22;4953525;29;20042;-69
2023/12/07 05:51:17;;;;;;;45.53;22.73;;;;;;;5.38;100.00;100228.28;4952150;29;20031;-70
2023/12/07 05:53:43;;;;;;;47.80;23.63;;;;;;;5.37;100.00;100233.34;4953874;29;20031;-70
2023/12/07 05:56:10;;;;;;;45.15;24.17;;;;;;;5.45;100.00;100232.97;4953758;29;20031;-71
2023/12/07 05:58:35;;;;;;;46.78;24.15;;;;;;;5.54;100.00;100241.94;4952505;29;20043;-70
2023/12/07 06:01:04;;;;;;;45.15;22.27;;;;;;;5.61;100.00;100250.03;4953940;29;20039;-70
2023/12/07 06:03:29;;;;;;;48.22;23.25;;;;;;;5.64;100.00;100250.16;4953546;29;20118;-70
2023/12/07 06:05:55;;;;;;;47.58;23.15;;;;;;;5.02;100.00;100162.44;4953582;29;20126;-70
2023/12/07 06:08:22;;;;;;;49.67;24.10;;;;;;;5.52;100.00;100249.56;4952500;28;20031;-70
2023/12/07 06:10:48;;;;;;;49.47;23.67;;;;;;;5.53;100.00;100248.72;4953849;29;20028;-71
2023/12/07 06:13:14;;;;;;;45.97;23.60;;;;;;;5.27;100.00;100199.59;4953262;29;20094;-70
2023/12/07 06:15:40;;;;;;;46.83;24.20;;;;;;;5.10;100.00;100165.41;4925891;29;20047;-70
2023/12/07 06:18:05;;;;;;;47.88;23.55;;;;;;;5.63;100.00;100258.69;4952877;29;20024;-70
2023/12/07 06:20:31;;;;;;;50.83;24.30;;;;;;;5.57;100.00;100239.53;4953207;29;20037;-71
2023/12/07 06:22:57;;;;;;;48.05;24.13;;;;;;;5.64;100.00;100259.56;4952666;28;20042;-71
2023/12/07 06:25:23;;;;;;;43.08;22.83;;;;;;;5.72;100.00;100263.41;4952822;29;20030;-70
2023/12/07 06:27:50;;;;;;;44.78;22.38;;;;;;;5.35;100.00;100207.66;4952962;29;20034;-71
2023/12/07 06:30:16;;;;;;;47.33;22.70;;;;;;;5.59;100.00;100254.16;4953321;29;20086;-69
2023/12/07 06:32:41;;;;;;;41.85;22.48;;;;;;;5.59;100.00;100261.00;4952294;29;20075;-70
2023/12/07 06:35:08;;;;;;;41.58;20.83;;;;;;;5.22;100.00;100195.00;4952553;29;20393;-70
2023/12/07 06:37:34;;;;;;;46.20;22.50;;;;;;;5.57;100.00;100263.47;4952666;29;20038;-70
2023/12/07 06:40:00;;;;;;;39.38;20.85;;;;;;;5.24;100.00;100196.84;4952700;29;20061;-70
2023/12/07 06:42:27;;;;;;;39.90;21.13;;;;;;;5.70;100.00;100282.06;4952823;29;20441;-69
2023/12/07 06:44:52;;;;;;;38.45;21.55;;;;;;;5.67;100.00;100278.53;4952510;29;20027;-69
2023/12/07 06:47:18;;;;;;;41.17;21.67;;;;;;;5.70;100.00;100289.75;4952363;29;20816;-70
2023/12/07 06:49:45;;;;;;;39.05;20.83;;;;;;;5.66;100.00;100287.00;4951872;29;20469;-71
2023/12/07 06:52:11;;;;;;;44.22;23.77;;;;;;;5.57;100.00;100273.72;4956871;28;20066;-71
2023/12/07 06:54:37;;;;;;;40.55;22.95;;;;;;;5.17;100.00;100199.88;4963748;28;20137;-71
2023/12/07 06:57:02;;;;;;;37.88;21.30;;;;;;;5.79;100.00;100301.34;4918459;29;20043;-72
2023/12/07 06:59:28;;;;;;;35.05;19.67;;;;;;;5.79;100.00;100316.72;4952283;29;20134;-71
2023/12/07 07:01:54;;;;;;;37.83;21.27;;;;;;;5.77;100.00;100305.53;4952599;29;20109;-71
2023/12/07 07:04:19;;;;;;;38.10;21.33;;;;;;;5.75;100.00;100309.66;4951703;29;20481;-70
2023/12/07 07:06:45;;;;;;;33.55;18.42;;;;;;;5.78;100.00;100307.28;4952707;29;20155;-71
2023/12/07 07:09:11;;;;;;;37.38;20.52;;;;;;;5.80;100.00;100300.53;4951904;29;20050;-70
2023/12/07 07:11:37;;;;;;;40.78;21.10;;;;;;;5.85;100.00;100311.03;4950570;29;20452;-71
2023/12/07 07:14:02;;;;;;;42.90;22.10;;;;;;;5.88;100.00;100306.09;4948414;28;20160;-73
2023/12/07 07:16:28;;;;;;;36.75;20.63;;;;;;;5.86;100.00;100284.63;4949851;29;20027;-72
2023/12/07 07:18:53;;;;;;;41.72;22.15;;;;;;;5.97;100.00;100306.56;4949521;29;20035;-71
2023/12/07 07:21:21;;;;;;;39.83;21.17;;;;;;;6.02;100.00;100311.09;4951286;28;20057;-72
2023/12/07 07:23:47;;;;;;;37.35;21.23;;;;;;;6.02;100.00;100309.41;4951336;28;20031;-72
2023/12/07 07:26:16;;;;;;;40.05;20.98;;;;;;;5.86;100.00;100292.31;4952101;29;20038;-73
2023/12/07 07:28:42;;;;;;;34.33;20.52;;;;;;;6.02;100.00;100311.09;4952456;29;20106;-73
2023/12/07 07:31:08;;;;;;;36.10;21.08;;;;;;;6.02;100.00;100314.53;4952421;29;20035;-73
2023/12/07 07:33:33;;;;;;;40.85;21.77;;;;;;;6.06;100.00;100310.47;4952449;29;20484;-73
2023/12/07 07:35:59;;;;;;;37.60;21.90;;;;;;;5.81;100.00;100270.69;4952396;29;20178;-73
2023/12/07 07:38:24;;;;;;;38.25;23.60;;;;;;;6.10;100.00;100312.38;4918261;29;20044;-73
2023/12/07 07:40:50;;;;;;;39.08;21.38;;;;;;;6.13;100.00;100315.09;4952393;29;20063;-72
2023/12/07 07:43:15;;;;;;;42.25;23.13;;;;;;;6.10;100.00;100320.94;4952128;29;20386;-72
2023/12/07 07:45:41;;;;;;;33.58;18.77;;;;;;;6.07;100.00;100294.25;4952435;29;20035;-73
2023/12/07 07:48:06;;;;;;;30.23;18.80;;;;;;;6.27;100.00;100326.09;4952087;29;20122;-72
2023/12/07 07:50:32;;;;;;;30.15;19.02;;;;;;;6.35;100.00;100329.03;4952434;29;20098;-72
2023/12/07 07:52:57;;;;;;;29.50;17.35;;;;;;;6.42;100.00;100326.00;4952250;29;20035;-72
2023/12/07 07:55:23;;;;;;;29.77;17.48;;;;;;;6.40;100.00;100318.19;4952411;29;20529;-72
2023/12/07 07:57:48;;;;;;;59.78;38.42;;;;;;;6.49;100.00;100328.03;4952129;29;20031;-72
2023/12/07 08:03:13;;;;;;;42.25;22.40;;;;;;;6.32;100.00;100315.25;5197753;23;20117;-72
2023/12/07 08:05:39;;;;;;;47.22;26.00;;;;;;;6.23;100.00;100319.00;4971657;28;20488;-72
2023/12/07 08:08:04;;;;;;;36.55;20.27;;;;;;;6.09;100.00;100300.34;4969625;28;20378;-73
2023/12/07 08:10:30;;;;;;;43.20;23.40;;;;;;;5.93;100.00;100278.13;4969564;28;20026;-73
2023/12/07 08:12:55;;;;;;;44.95;23.00;;;;;;;5.73;100.00;100229.31;4969557;28;20031;-72
2023/12/07 08:15:21;;;;;;;39.10;22.17;;;;;;;6.21;100.00;100331.75;4969436;28;20027;-72
2023/12/07 08:17:47;;;;;;;47.67;22.65;;;;;;;6.15;100.00;100329.75;4969328;28;20399;-72
2023/12/07 08:20:14;;;;;;;51.75;22.95;;;;;;;5.73;100.00;100254.03;4971506;28;20109;-72
2023/12/07 08:22:43;;;;;;;46.70;25.27;;;;;;;6.25;100.00;100335.38;4970314;28;20066;-73
2023/12/07 08:25:10;;;;;;;47.35;22.40;;;;;;;6.32;100.00;100340.88;4969761;28;20106;-72
2023/12/07 08:27:39;;;;;;;45.90;23.13;;;;;;;5.92;100.00;100277.28;4969744;28;20045;-71
2023/12/07 08:30:06;;;;;;;43.08;21.55;;;;;;;6.25;100.00;100337.94;4970962;28;20043;-71
2023/12/07 08:32:31;;;;;;;48.75;22.27;;;;;;;6.28;100.00;100338.06;4972773;28;20031;-71
2023/12/07 08:34:57;;;;;;;42.05;21.42;;;;;;;6.39;100.00;100343.78;4974349;28;20034;-71
2023/12/07 08:37:22;;;;;;;45.33;22.63;;;;;;;6.46;100.00;100341.59;4974205;28;20066;-71
2023/12/07 08:39:48;;;;;;;44.55;20.60;;;;;;;6.55;100.00;100351.44;4973979;28;20106;-72
2023/12/07 08:42:14;;;;;;;48.67;21.33;;;;;;;6.52;100.00;100345.28;4972460;28;20041;-71
2023/12/07 08:44:39;;;;;;;48.75;23.92;;;;;;;6.36;100.00;100349.63;4972623;28;20030;-71
2023/12/07 08:47:05;;;;;;;41.55;21.17;;;;;;;6.46;100.00;100348.41;4972778;28;20037;-71
2023/12/07 08:49:31;;;;;;;40.83;21.45;;;;;;;6.04;100.00;100266.78;4972827;28;20460;-71
2023/12/07 08:51:57;;;;;;;46.15;22.50;;;;;;;6.24;100.00;100277.19;4973843;28;20113;-71
2023/12/07 08:54:23;;;;;;;44.67;21.25;;;;;;;6.71;100.00;100354.81;4956632;28;20418;-71
2023/12/07 08:56:48;;;;;;;37.60;19.17;;;;;;;6.71;100.00;100334.28;4974034;28;20023;-71
2023/12/07 08:59:14;;;;;;;42.03;20.92;;;;;;;6.44;100.00;100280.78;4972923;28;20034;-72
2023/12/07 09:01:39;;;;;;;44.22;22.80;;;;;;;6.90;100.00;100341.19;4973871;28;20090;-72
2023/12/07 09:04:05;;;;;;;40.83;20.58;;;;;;;6.40;100.00;100251.53;4974417;28;20122;-71
2023/12/07 09:06:31;;;;;;;37.65;20.27;;;;;;;6.99;100.00;100338.22;4973976;28;20421;-71
2023/12/07 09:08:56;;;;;;;38.63;20.55;;;;;;;6.96;100.00;100342.38;4974232;28;20031;-71
2023/12/07 09:11:22;;;;;;;47.78;22.05;;;;;;;6.96;100.00;100339.81;4974151;28;20038;-71
2023/12/07 09:13:47;;;;;;;40.78;21.05;;;;;;;7.03;100.00;100342.69;4939536;28;20042;-72
2023/12/07 09:16:13;;;;;;;40.97;21.30;;;;;;;6.98;100.00;100319.38;4974103;28;20058;-73
2023/12/07 09:18:38;;;;;;;40.38;21.13;;;;;;;7.18;100.00;100338.31;4974179;28;20030;-72
2023/12/07 09:21:04;;;;;;;42.05;21.08;;;;;;;7.25;100.00;100330.09;4974134;28;20023;-72
2023/12/07 09:23:31;;;;;;;38.85;22.58;;;;;;;7.28;100.00;100327.66;4974148;28;20489;-72
2023/12/07 09:25:57;;;;;;;47.25;22.27;;;;;;;7.31;100.00;100326.06;4973474;28;20105;-72
2023/12/07 09:28:23;;;;;;;35.50;18.90;;;;;;;7.35;100.00;100320.25;4973774;28;20062;-72
2023/12/07 09:30:49;;;;;;;40.80;19.48;;;;;;;7.27;100.00;100325.03;4973539;28;20031;-72
2023/12/07 09:33:14;;;;;;;40.45;18.60;;;;;;;7.19;100.00;100324.66;4973582;28;20485;-72
2023/12/07 09:35:40;;;;;;;39.25;20.65;;;;;;;7.20;100.00;100318.72;4973843;28;20504;-72
2023/12/07 09:38:06;;;;;;;45.28;22.63;;;;;;;6.92;100.00;100235.25;4973765;28;20062;-73
2023/12/07 09:40:32;;;;;;;37.97;20.08;;;;;;;7.04;100.00;100227.25;4973003;28;20038;-72
2023/12/07 09:42:58;;;;;;;32.15;16.95;;;;;;;7.49;100.00;100297.78;4972902;28;20041;-72
2023/12/07 09:45:24;;;;;;;36.72;20.27;;;;;;;7.58;100.00;100296.53;4971080;28;20591;-72
2023/12/07 09:47:51;;;;;;;35.55;18.00;;;;;;;7.75;100.00;100305.00;4971891;28;20039;-71
2023/12/07 09:50:18;;;;;;;36.10;19.08;;;;;;;7.79;100.00;100311.19;4968221;28;20035;-72
2023/12/07 09:52:43;;;;;;;29.00;16.83;;;;;;;7.89;100.00;100303.06;4927340;29;20051;-71
2023/12/07 09:55:09;;;;;;;27.73;14.40;;;;;;;7.89;100.00;100303.06;4953578;29;20031;-71
2023/12/07 09:57:37;;;;;;;27.05;14.85;;;;;;;7.94;100.00;100311.00;4952545;29;20066;-72
2023/12/07 10:00:04;;;;;;;30.02;16.02;;;;;;;7.91;100.00;100293.75;4952875;29;20031;-72
2023/12/07 10:02:30;;;;;;;28.63;15.68;;;;;;;7.97;100.00;100287.97;4953401;29;20501;-72
2023/12/07 10:05:13;;;;;;;30.38;16.48;;;;;;;8.25;100.00;100309.78;4953425;29;20110;-72
2023/12/07 10:07:56;;;;;;;28.23;15.07;;;;;;;8.28;100.00;100299.63;4919485;29;20126;-72
2023/12/07 10:10:22;;;;;;;24.92;14.18;;;;;;;8.31;100.00;100299.75;4953427;29;20046;-72
2023/12/07 10:12:52;;;;;;;25.73;13.75;;;;;;;8.38;100.00;100306.03;4951859;29;20035;-72
2023/12/07 10:15:19;;;;;;;25.13;13.55;;;;;;;8.29;100.00;100296.22;4952850;29;20057;-72
2023/12/07 10:17:59;;;;;;;24.60;12.02;;;;;;;8.34;100.00;100306.72;4953084;29;20489;-72
2023/12/07 10:20:27;;;;;;;17.90;10.93;;;;;;;8.36;100.00;100303.41;4953597;29;20093;-72
2023/12/07 10:23:07;;;;;;;21.80;10.85;;;;;;;8.03;100.00;100218.84;4953077;29;20027;-72
2023/12/07 10:25:35;;;;;;;23.75;12.48;;;;;;;8.50;100.00;100287.69;4953244;29;20031;-72
2023/12/07 10:28:03;;;;;;;20.95;11.32;;;;;;;8.55;100.00;100289.66;4953564;29;20066;-72
2023/12/07 10:30:29;;;;;;;20.80;11.55;;;;;;;8.61;100.00;100288.16;4952657;29;20031;-72
2023/12/07 10:32:55;;;;;;;22.55;11.20;;;;;;;8.63;100.00;100283.97;4953357;29;20089;-72
2023/12/07 10:35:21;;;;;;;17.50;10.45;;;;;;;8.68;100.00;100285.91;4953277;29;20023;-73
2023/12/07 10:37:46;;;;;;;20.00;11.10;;;;;;;8.32;100.00;100206.31;4953182;29;20118;-70
2023/12/07 10:40:12;;;;;;;22.27;11.13;;;;;;;8.86;100.00;100274.59;4952599;29;20166;-72
2023/12/07 10:42:41;;;;;;;18.88;10.68;;;;;;;8.87;100.00;100274.69;4952085;29;20039;-72
2023/12/07 10:45:09;;;;;;;17.63;10.02;;;;;;;8.79;100.00;100270.03;4953211;29;20031;-72
2023/12/07 10:47:37;;;;;;;19.67;11.07;;;;;;;8.82;100.00;100276.19;4952396;29;20375;-72
2023/12/07 10:50:10;;;;;;;17.75;9.02;;;;;;;8.87;100.00;100274.69;4952634;29;20028;-74
2023/12/07 10:52:37;;;;;;;17.02;9.13;;;;;;;8.52;100.00;100194.34;4952803;29;20081;-73
2023/12/07 10:55:07;;;;;;;15.95;9.65;;;;;;;8.96;100.00;100283.56;4952166;28;20039;-73
2023/12/07 10:57:34;;;;;;;14.80;8.10;;;;;;;9.01;100.00;100276.91;4952269;29;20050;-73
2023/12/07 11:00:01;;;;;;;12.45;8.05;;;;;;;9.08;100.00;100286.63;4952784;29;20094;-73
2023/12/07 11:02:28;;;;;;;18.05;8.27;;;;;;;9.13;100.00;100274.81;4935471;29;20055;-71
2023/12/07 11:04:56;;;;;;;13.23;7.85;;;;;;;9.14;100.00;100274.00;4952753;29;20027;-73
2023/12/07 11:07:25;;;;;;;15.38;7.38;;;;;;;8.81;100.00;100196.31;4952620;29;20035;-73
2023/12/07 11:10:02;;;;;;;15.68;7.38;;;;;;;8.88;100.00;100204.34;4952960;29;20139;-73
2023/12/07 11:12:35;;;;;;;11.27;6.72;;;;;;;8.83;100.00;100185.25;4952230;29;20485;-73
2023/12/07 11:15:02;;;;;;;13.75;7.43;;;;;;;9.42;100.00;100269.06;4952512;29;20031;-73
2023/12/07 11:17:27;;;;;;;11.65;7.25;;;;;;;9.46;100.00;100264.09;4952543;29;20559;-72
2023/12/07 11:19:53;;;;;;;10.88;6.75;;;;;;;9.49;100.00;100273.63;4935481;29;20035;-72
2023/12/07 11:22:22;;;;;;;9.77;6.47;;;;;;;9.33;100.00;100236.97;4935041;29;20028;-72
2023/12/07 11:25:00;;;;;;;9.63;6.25;;;;;;;9.06;100.00;100186.16;4950965;29;20028;-73
2023/12/07 11:27:29;;;;;;;12.02;7.15;;;;;;;9.61;100.00;100270.63;4952586;29;20118;-73